createdAt,value
2022-08-12T00:02:16.318Z,19.07
2022-08-12T00:07:31.456Z,19.38
2022-08-12T00:12:46.681Z,19.41
2022-08-12T00:18:03.028Z,19.35
2022-08-12T00:23:18.280Z,19.44
2022-08-12T00:28:33.659Z,19.38
2022-08-12T00:33:52.511Z,19.32
2022-08-12T00:39:08.418Z,19.32
2022-08-12T00:44:07.089Z,19.18
2022-08-12T00:49:04.036Z,19.00
2022-08-12T00:54:00.537Z,18.80
2022-08-12T00:59:01.325Z,18.66
2022-08-12T01:04:17.931Z,18.67
2022-08-12T01:09:33.407Z,18.65
2022-08-12T01:14:29.752Z,18.61
2022-08-12T01:19:27.180Z,18.58
2022-08-12T01:24:51.011Z,18.53
2022-08-12T01:29:51.466Z,18.66
2022-08-12T01:35:05.570Z,18.57
2022-08-12T01:40:36.793Z,18.35
2022-08-12T01:45:24.355Z,18.30
2022-08-12T01:50:31.705Z,18.26
2022-08-12T01:55:33.328Z,18.25
2022-08-12T02:00:55.360Z,18.19
2022-08-12T02:06:35.713Z,18.09
2022-08-12T02:11:35.092Z,18.13
2022-08-12T02:16:50.559Z,18.01
2022-08-12T02:22:08.256Z,17.90
2022-08-12T02:27:06.661Z,17.87
2022-08-12T02:32:04.778Z,17.74
2022-08-12T02:37:03.479Z,17.68
2022-08-12T02:42:03.089Z,17.64
2022-08-12T02:47:03.884Z,17.64
2022-08-12T02:52:00.958Z,17.60
2022-08-12T02:56:59.350Z,17.55
2022-08-12T03:01:59.469Z,17.47
2022-08-12T03:07:09.584Z,17.54
2022-08-12T03:12:07.549Z,17.53
2022-08-12T03:17:13.605Z,17.38
2022-08-12T03:22:14.679Z,17.33
2022-08-12T03:27:14.232Z,17.33
2022-08-12T03:32:36.139Z,17.20
2022-08-12T03:37:30.316Z,17.14
2022-08-12T03:42:42.332Z,17.09
2022-08-12T03:48:19.222Z,17.03
2022-08-12T03:53:40.829Z,16.88
2022-08-12T03:58:56.676Z,16.84
2022-08-12T04:03:53.810Z,16.78
2022-08-12T04:08:52.297Z,16.79
2022-08-12T04:13:48.764Z,16.75
2022-08-12T04:18:45.932Z,16.76
2022-08-12T04:23:46.347Z,16.69
2022-08-12T04:28:45.726Z,16.73
2022-08-12T04:33:43.791Z,16.81
2022-08-12T04:38:40.836Z,16.83
2022-08-12T04:43:59.701Z,16.89
2022-08-12T04:48:55.525Z,16.94
2022-08-12T04:53:52.104Z,17.06
2022-08-12T04:58:52.590Z,17.16
2022-08-12T05:03:51.573Z,17.18
2022-08-12T05:08:48.520Z,17.22
2022-08-12T05:13:46.086Z,17.28
2022-08-12T05:18:45.830Z,17.36
2022-08-12T05:23:44.273Z,17.50
2022-08-12T05:28:41.177Z,17.71
2022-08-12T05:33:38.279Z,17.93
2022-08-12T05:38:53.617Z,18.05
2022-08-12T05:43:59.505Z,18.36
2022-08-12T05:48:56.927Z,18.68
2022-08-12T05:53:54.263Z,19.43
2022-08-12T05:58:52.074Z,20.01
2022-08-12T06:03:49.823Z,20.47
2022-08-12T06:08:48.505Z,21.11
2022-08-12T06:13:54.215Z,21.37
2022-08-12T06:18:51.593Z,21.87
2022-08-12T06:23:48.116Z,22.44
2022-08-12T06:28:45.690Z,22.82
2022-08-12T06:33:55.913Z,23.25
2022-08-12T06:38:57.305Z,23.55
2022-08-12T06:44:05.671Z,23.74
2022-08-12T06:49:04.116Z,23.65
2022-08-12T06:54:01.421Z,24.18
2022-08-12T06:58:57.970Z,24.41
2022-08-12T07:03:55.326Z,24.83
2022-08-12T07:08:51.714Z,25.06
2022-08-12T07:14:05.030Z,25.25
2022-08-12T07:19:09.270Z,25.57
2022-08-12T07:24:06.626Z,25.68
2022-08-12T07:29:03.311Z,25.75
2022-08-12T07:33:59.930Z,25.94
2022-08-12T07:38:56.377Z,26.03
2022-08-12T07:44:03.906Z,26.06
2022-08-12T07:49:06.046Z,26.25
2022-08-12T07:54:09.085Z,26.56
2022-08-12T07:59:08.087Z,26.78
2022-08-12T08:04:23.957Z,27.18
2022-08-12T08:09:23.723Z,27.58
2022-08-12T08:14:21.149Z,27.87
2022-08-12T08:19:23.526Z,27.42
2022-08-12T08:24:19.956Z,26.68
2022-08-12T08:29:17.417Z,26.53
2022-08-12T08:34:33.469Z,27.22
2022-08-12T08:39:31.754Z,28.09
2022-08-12T08:44:28.259Z,28.65
2022-08-12T08:49:25.067Z,28.79
2022-08-12T08:54:21.457Z,29.04
2022-08-12T08:59:19.321Z,29.11
2022-08-12T09:05:07.832Z,29.03
2022-08-12T09:09:42.921Z,29.21
2022-08-12T09:14:51.228Z,29.39
2022-08-12T09:19:52.258Z,29.06
2022-08-12T09:24:53.794Z,29.36
2022-08-12T09:30:08.770Z,29.11
2022-08-12T09:35:06.884Z,29.04
2022-08-12T09:40:57.841Z,28.99
2022-08-12T09:46:06.798Z,29.39
2022-08-12T09:50:55.466Z,29.52
2022-08-12T09:56:06.667Z,30.13
2022-08-12T10:01:23.296Z,30.24
2022-08-12T10:06:31.544Z,30.20
2022-08-12T10:12:11.620Z,30.34
2022-08-12T10:17:08.590Z,30.63
2022-08-12T10:22:16.481Z,29.77
2022-08-12T10:28:03.687Z,30.19
2022-08-12T10:33:00.071Z,30.30
2022-08-12T10:38:37.877Z,30.26
2022-08-12T10:43:55.685Z,30.50
2022-08-12T10:49:05.728Z,30.08
2022-08-12T10:54:13.365Z,29.81
2022-08-12T10:59:10.813Z,29.58
2022-08-12T11:04:24.121Z,29.60
2022-08-12T11:09:41.553Z,29.82
2022-08-12T11:14:49.799Z,29.83
2022-08-12T11:19:47.930Z,29.98
2022-08-12T11:24:51.656Z,29.67
2022-08-12T11:30:02.477Z,30.10
2022-08-12T11:35:03.813Z,30.21
2022-08-12T11:40:00.179Z,29.44
2022-08-12T11:44:56.520Z,29.98
2022-08-12T11:49:52.881Z,30.27
2022-08-12T11:54:50.853Z,29.98
2022-08-12T12:05:04.445Z,30.21
2022-08-12T12:10:01.979Z,30.65
2022-08-12T12:15:02.803Z,30.54
2022-08-12T12:20:11.570Z,30.73
2022-08-12T12:25:13.285Z,31.00
2022-08-12T12:30:18.044Z,30.70
2022-08-12T12:36:06.626Z,31.17
2022-08-12T12:40:45.271Z,31.16
2022-08-12T12:45:46.382Z,31.07
2022-08-12T12:51:11.968Z,30.42
2022-08-12T12:56:15.607Z,30.26
2022-08-12T13:01:26.781Z,30.33
2022-08-12T13:06:30.206Z,30.51
2022-08-12T13:11:41.298Z,29.80
2022-08-12T13:16:44.023Z,30.10
2022-08-12T13:22:00.943Z,30.97
2022-08-12T13:26:57.305Z,31.00
2022-08-12T13:32:19.490Z,31.09
2022-08-12T13:37:11.962Z,30.85
2022-08-12T13:42:14.578Z,30.75
2022-08-12T13:47:19.458Z,30.79
2022-08-12T13:52:18.526Z,30.96
2022-08-12T13:57:17.027Z,30.91
2022-08-12T14:02:13.830Z,30.96
2022-08-12T14:07:10.335Z,31.30
2022-08-12T14:12:07.514Z,31.43
2022-08-12T14:17:12.840Z,31.35
2022-08-12T14:22:17.341Z,30.93
2022-08-12T14:27:13.946Z,30.98
2022-08-12T14:32:36.621Z,30.94
2022-08-12T14:37:58.063Z,31.10
2022-08-12T14:42:49.342Z,31.16
2022-08-12T14:47:53.661Z,31.29
2022-08-12T14:58:11.947Z,30.68
2022-08-12T15:03:08.746Z,30.88
2022-08-12T15:08:11.991Z,31.18
2022-08-12T15:13:10.542Z,30.87
2022-08-12T15:18:11.946Z,30.93
2022-08-12T15:23:17.815Z,31.27
2022-08-12T15:28:22.496Z,31.17
2022-08-12T15:33:24.127Z,30.80
2022-08-12T15:38:27.299Z,30.96
2022-08-12T15:44:14.194Z,31.13
2022-08-12T15:48:46.715Z,31.16
2022-08-12T15:54:02.069Z,30.98
2022-08-12T15:58:59.118Z,30.81
2022-08-12T16:04:00.397Z,31.00
2022-08-12T16:08:57.537Z,31.03
2022-08-12T16:13:56.045Z,30.93
2022-08-12T16:18:59.580Z,30.95
2022-08-12T16:23:57.730Z,31.38
2022-08-12T16:28:56.026Z,31.21
2022-08-12T16:33:59.666Z,31.62
2022-08-12T16:39:01.729Z,31.22
2022-08-12T16:43:58.474Z,30.92
2022-08-12T16:48:56.322Z,31.81
2022-08-12T16:53:52.969Z,32.51
2022-08-12T16:58:49.371Z,34.68
2022-08-12T17:04:09.151Z,38.38
2022-08-12T17:09:08.579Z,40.77
2022-08-12T17:14:13.892Z,40.47
2022-08-12T17:19:12.041Z,40.04
2022-08-12T17:24:15.152Z,39.07
2022-08-12T17:29:16.641Z,40.23
2022-08-12T17:34:35.775Z,39.24
2022-08-12T17:40:15.598Z,39.32
2022-08-12T17:44:52.695Z,37.74
2022-08-12T17:50:02.270Z,37.89
2022-08-12T17:55:01.299Z,37.53
2022-08-12T17:59:58.119Z,36.89
2022-08-12T18:05:05.909Z,36.10
2022-08-12T18:10:07.103Z,35.15
2022-08-12T18:15:09.002Z,34.40
2022-08-12T18:20:08.710Z,32.80
2022-08-12T18:26:14.990Z,32.17
2022-08-12T18:30:55.886Z,30.52
2022-08-12T18:35:55.466Z,28.34
2022-08-12T18:41:21.373Z,27.30
2022-08-12T18:46:20.045Z,26.46
2022-08-12T18:51:21.946Z,26.11
2022-08-12T18:56:33.755Z,25.67
2022-08-12T19:02:21.305Z,25.25
2022-08-12T19:06:48.808Z,24.84
2022-08-12T19:12:06.358Z,24.60
2022-08-12T19:17:04.955Z,24.23
2022-08-12T19:22:01.810Z,23.92
2022-08-12T19:27:01.238Z,23.67
2022-08-12T19:32:00.559Z,23.48
2022-08-12T19:36:57.389Z,23.21
2022-08-12T19:42:00.717Z,22.86
2022-08-12T19:47:01.639Z,22.85
2022-08-12T19:51:59.142Z,22.80
2022-08-12T19:56:57.412Z,22.71
2022-08-12T20:02:02.854Z,22.61
2022-08-12T20:07:00.041Z,22.72
2022-08-12T20:12:14.107Z,22.78
2022-08-12T20:17:15.969Z,22.52
2022-08-12T20:22:24.160Z,22.39
2022-08-12T20:27:28.774Z,22.33
2022-08-12T20:33:00.733Z,22.15
2022-08-12T20:38:07.047Z,22.04
2022-08-12T20:43:19.042Z,22.12
2022-08-12T20:48:25.176Z,22.02
2022-08-12T20:53:33.230Z,22.13
2022-08-12T20:58:38.971Z,21.95
2022-08-12T21:03:58.390Z,21.95
2022-08-12T21:09:01.039Z,21.77
2022-08-12T21:13:59.293Z,21.67
2022-08-12T21:18:57.334Z,21.76
2022-08-12T21:23:56.491Z,21.47
2022-08-12T21:29:01.701Z,21.37
2022-08-12T21:34:07.148Z,21.26
2022-08-12T21:39:18.934Z,21.15
2022-08-12T21:44:32.593Z,21.05
2022-08-12T21:49:40.547Z,20.75
2022-08-12T21:54:56.463Z,20.45
2022-08-12T21:59:54.141Z,20.52
2022-08-12T22:05:09.390Z,20.52
2022-08-12T22:10:06.499Z,20.35
2022-08-12T22:15:21.656Z,20.43
2022-08-12T22:20:21.930Z,20.42
2022-08-12T22:25:20.246Z,20.20
2022-08-12T22:30:35.262Z,20.32
2022-08-12T22:35:55.846Z,20.22
2022-08-12T22:40:54.188Z,19.96
2022-08-12T22:46:20.673Z,19.84
2022-08-12T22:51:21.957Z,19.74
2022-08-12T22:56:31.003Z,19.94
2022-08-12T23:01:52.252Z,19.98
2022-08-12T23:06:54.431Z,19.99
2022-08-12T23:11:51.035Z,19.76
2022-08-12T23:16:50.262Z,19.61
2022-08-12T23:22:05.526Z,19.86
2022-08-12T23:27:44.009Z,19.91
2022-08-12T23:32:44.877Z,19.91
2022-08-12T23:37:47.207Z,19.78
2022-08-12T23:42:50.503Z,19.74
2022-08-12T23:47:48.183Z,19.43
2022-08-12T23:52:50.481Z,19.35
2022-08-12T23:58:21.277Z,19.10
